Airfield :
LOGIN :

Register | Disclaimer

   EN    FR    IT 

 










Legend :    VFR   Marginal VFR   IFR   Intensive IFR   Very Intensive IFR
Visi :
Ceiling :
>= 8 km
>= 3000ft
5 to 8 km
1000 to 3000 ft
1500m to 5 km
500 to 1000 ft
800 to 1500m
200 to 500 ft
< 800m
< 200 ft
Symbols :   Thunderstorms  Fog  Heavy snow  Heavy precipitations  Wind > 20 kt
SIGMETs :     Misc.  Thunderstorms  Icing  Turbulence  Mountain Waves  Volcanic Ashes






- Airport Elevation : 15 ft
- IATA code : FCO


LIRF - Roma Leonardo da Vinci Fiumicino

CURRENT METAR :
  • 020820Z 21006KT 180V270 CAVOK 29/18 Q1011 NOSIG

EXPIRED METARs :
  • 020750Z 16003KT 100V200 CAVOK 29/18 Q1011 NOSIG
  • 020720Z 14004KT 090V210 CAVOK 28/19 Q1011 NOSIG
  • 020650Z 10006KT CAVOK 27/20 Q1011 NOSIG
  • 020620Z 09007KT CAVOK 26/21 Q1011 NOSIG
  • 020550Z 08006KT CAVOK 25/21 Q1011 NOSIG

TAF TAF LIRF
Valid from the 02 at 06:00 until the 03 at 12:00 UTC


020500Z 0206/0312 VRB05KT CAVOK
BECMG 0208/0210 25010KT
BECMG 0216/0218 VRB05KT
BECMG 0308/0310 22012KT



MET'MAP, your aeronautical weather chart ! - Copyright ORBIFLY December 2007 - Disclaimer

ORBIFLY MET'MAP TEAM :

Programming & Development : Alexandra Zaïnal
Concept & original design : Baudouin d'Aumeries
Assistance for programming : Marc-Olivier Méhu
Technical & hardware support : Manuel Goepfert

Contact : metmap@orbifly.com




SOURCES & CREDITS :

   NOAA